Latest Weather Observations for St Kilda Harbour RMYS

IDV60801

Issued at 7:32 am EST Saturday 25 June 2016 (issued every 30 minutes, with the page automatically refreshed every 10 minutes)

About weather observations | Map of weather stations | Latest weather observations for VIC | Other Formats
Station Details ID: 086220 Name: ST KILDA HARBOUR - RMYS Lat: -37.86 Lon: 144.96 Height: 6.4 m
Data from the previous 72 hours. | See also: Recent months for locations in Victoria
Date/Time
EST
Temp
°C
App
Temp
°C
Dew
Point
°C
Rel
Hum
%
Delta-T
°C
Wind Press
QNH
hPa
Press
MSL
hPa
Rain since
9am
mm
Dir  Spd
km/h
Gust
km/h
Spd
kts
Gust
kts
25/07:30am - - - - - WNW 6 11 3 6 - - -
25/07:00am - - - - - NW 9 15 5 8 - - -
25/06:30am - - - - - WNW 13 17 7 9 - - -
25/06:00am - - - - - W 11 17 6 9 - - -
25/05:30am - - - - - W 9 13 5 7 - - -
25/05:00am - - - - - NW 11 19 6 10 - - -
25/04:30am - - - - - NW 6 17 3 9 - - -
25/04:00am - - - - - NE 7 11 4 6 - - -
25/03:30am - - - - - NNW 6 9 3 5 - - -
25/03:00am - - - - - W 20 30 11 16 - - -
25/02:30am - - - - - W 24 28 13 15 - - -
25/02:00am - - - - - W 26 32 14 17 - - -
25/01:30am - - - - - W 28 35 15 19 - - -
25/01:00am - - - - - W 28 33 15 18 - - -
25/12:30am - - - - - WSW 41 52 22 28 - - -
25/12:00am - - - - - W 32 41 17 22 - - -
 
Date/Time
EST
Temp
°C
App
Temp
°C
Dew
Point
°C
Rel
Hum
%
Delta-T
°C
Wind Press
QNH
hPa
Press
MSL
hPa
Rain since
9am
mm
Dir  Spd
km/h
Gust
km/h
Spd
kts
Gust
kts
24/11:30pm - - - - - W 28 33 15 18 - - -
24/11:00pm - - - - - W 26 33 14 18 - - -
24/10:30pm - - - - - W 20 28 11 15 - - -
24/10:00pm - - - - - W 30 35 16 19 - - -
24/09:30pm - - - - - W 30 37 16 20 - - -
24/09:00pm - - - - - W 32 37 17 20 - - -
24/08:30pm - - - - - WNW 26 30 14 16 - - -
24/08:00pm - - - - - W 28 37 15 20 - - -
24/07:30pm - - - - - WNW 28 33 15 18 - - -
24/07:00pm - - - - - WNW 30 39 16 21 - - -
24/06:30pm - - - - - W 33 41 18 22 - - -
24/06:00pm - - - - - W 32 41 17 22 - - -
24/05:30pm - - - - - W 32 41 17 22 - - -
24/05:00pm - - - - - W 30 39 16 21 - - -
24/04:30pm - - - - - W 35 43 19 23 - - -
24/04:00pm - - - - - WSW 35 46 19 25 - - -
24/03:50pm - - - - - WSW 44 59 24 32 - - -
24/03:41pm - - - - - WSW 57 76 31 41 - - -
24/03:34pm - - - - - W 50 76 27 41 - - -
24/03:31pm - - - - - W 43 69 23 37 - - -
24/03:30pm - - - - - W 41 57 22 31 - - -
24/03:00pm - - - - - W 39 50 21 27 - - -
24/02:30pm - - - - - W 37 44 20 24 - - -
24/02:07pm - - - - - W 48 69 26 37 - - -
24/02:00pm - - - - - WSW 57 72 31 39 - - -
24/01:55pm - - - - - WSW 63 82 34 44 - - -
24/01:47pm - - - - - WSW 65 80 35 43 - - -
24/01:36pm - - - - - WSW 50 72 27 39 - - -
24/01:30pm - - - - - WSW 44 54 24 29 - - -
24/01:00pm - - - - - W 32 39 17 21 - - -
24/12:30pm - - - - - W 35 46 19 25 - - -
24/12:00pm - - - - - W 35 43 19 23 - - -
24/11:30am - - - - - W 30 39 16 21 - - -
24/11:00am - - - - - WSW 52 61 28 33 - - -
24/10:30am - - - - - W 33 44 18 24 - - -
24/10:00am - - - - - W 28 39 15 21 - - -
24/09:30am - - - - - W 33 41 18 22 - - -
24/09:00am - - - - - WNW 24 33 13 18 - - -
24/08:30am - - - - - WNW 30 39 16 21 - - -
24/08:00am - - - - - WNW 30 35 16 19 - - -
24/07:30am - - - - - WNW 26 35 14 19 - - -
24/07:00am - - - - - NW 28 48 15 26 - - -
24/06:59am - - - - - NW 28 48 15 26 - - -
24/06:48am - - - - - WNW 26 39 14 21 - - -
24/06:30am - - - - - NW 13 20 7 11 - - -
24/06:00am - - - - - NNW 19 24 10 13 - - -
24/05:30am - - - - - NNW 20 30 11 16 - - -
24/05:00am - - - - - N 7 11 4 6 - - -
24/04:30am - - - - - NW 15 24 8 13 - - -
24/04:00am - - - - - NNW 19 24 10 13 - - -
24/03:30am - - - - - NNW 19 26 10 14 - - -
24/03:00am - - - - - NNW 22 28 12 15 - - -
24/02:30am - - - - - NNW 20 28 11 15 - - -
24/02:00am - - - - - NNW 20 28 11 15 - - -
24/01:30am - - - - - NNW 20 28 11 15 - - -
24/01:00am - - - - - NNW 17 24 9 13 - - -
24/12:30am - - - - - NW 15 20 8 11 - - -
24/12:00am - - - - - NNW 15 20 8 11 - - -
 
Date/Time
EST
Temp
°C
App
Temp
°C
Dew
Point
°C
Rel
Hum
%
Delta-T
°C
Wind Press
QNH
hPa
Press
MSL
hPa
Rain since
9am
mm
Dir  Spd
km/h
Gust
km/h
Spd
kts
Gust
kts
23/11:30pm - - - - - NW 13 17 7 9 - - -
23/11:00pm - - - - - NW 13 19 7 10 - - -
23/10:30pm - - - - - W 17 20 9 11 - - -
23/10:00pm - - - - - WNW 17 20 9 11 - - -
23/09:30pm - - - - - NW 17 22 9 12 - - -
23/09:00pm - - - - - NW 22 35 12 19 - - -
23/08:30pm - - - - - N 26 43 14 23 - - -
23/08:00pm - - - - - N 20 28 11 15 - - -
23/07:30pm - - - - - NW 19 24 10 13 - - -
23/07:00pm - - - - - W 22 30 12 16 - - -
23/06:30pm - - - - - WSW 28 37 15 20 - - -
23/06:00pm - - - - - WNW 32 39 17 21 - - -
23/05:51pm - - - - - WNW 35 43 19 23 - - -
23/05:30pm - - - - - W 46 61 25 33 - - -
23/05:16pm - - - - - W 50 69 27 37 - - -
23/05:08pm - - - - - NW 48 74 26 40 - - -
23/05:06pm - - - - - NW 44 74 24 40 - - -
23/05:00pm - - - - - NNW 43 61 23 33 - - -
23/04:30pm - - - - - N 39 61 21 33 - - -
23/04:00pm - - - - - N 37 56 20 30 - - -
23/03:30pm - - - - - N 46 67 25 36 - - -
23/03:05pm - - - - - NNW 44 67 24 36 - - -
23/03:00pm - - - - - N 41 54 22 29 - - -
23/02:30pm - - - - - N 44 63 24 34 - - -
23/02:03pm - - - - - N 41 59 22 32 - - -
23/02:00pm - - - - - N 43 59 23 32 - - -
23/01:31pm - - - - - N 44 67 24 36 - - -
23/01:30pm - - - - - N 44 61 24 33 - - -
23/01:00pm - - - - - NNW 48 76 26 41 - - -
23/12:30pm - - - - - N 48 70 26 38 - - -
23/12:00pm - - - - - N 43 67 23 36 - - -
23/11:30am - - - - - N 39 63 21 34 - - -
23/11:00am - - - - - N 35 63 19 34 - - -
23/10:30am - - - - - N 33 63 18 34 - - -
23/10:19am - - - - - N 30 48 16 26 - - -
23/10:00am - - - - - N 32 48 17 26 - - -
23/09:30am - - - - - N 39 59 21 32 - - -
23/09:09am - - - - - N 30 50 16 27 - - -
23/09:00am - - - - - N 32 44 17 24 - - -
23/08:37am - - - - - N 33 57 18 31 - - -
23/08:30am - - - - - N 33 46 18 25 - - -
23/08:00am - - - - - N 26 46 14 25 - - -
23/07:30am - - - - - N 20 33 11 18 - - -
23/07:00am - - - - - N 28 44 15 24 - - -
23/06:30am - - - - - N 30 44 16 24 - - -
23/06:00am - - - - - N 28 41 15 22 - - -
23/05:30am - - - - - N 26 41 14 22 - - -
23/05:00am - - - - - N 28 41 15 22 - - -
23/04:30am - - - - - NNW 32 44 17 24 - - -
23/04:00am - - - - - NNW 30 39 16 21 - - -
23/03:30am - - - - - NNW 32 43 17 23 - - -
23/03:00am - - - - - NNW 28 37 15 20 - - -
23/02:30am - - - - - NNW 32 41 17 22 - - -
23/02:00am - - - - - NNW 33 46 18 25 - - -
23/01:30am - - - - - NNW 26 35 14 19 - - -
23/01:00am - - - - - NNW 30 41 16 22 - - -
23/12:30am - - - - - NNW 28 37 15 20 - - -
23/12:00am - - - - - NNW 24 35 13 19 - - -
 
Date/Time
EST
Temp
°C
App
Temp
°C
Dew
Point
°C
Rel
Hum
%
Delta-T
°C
Wind Press
QNH
hPa
Press
MSL
hPa
Rain since
9am
mm
Dir  Spd
km/h
Gust
km/h
Spd
kts
Gust
kts
22/11:30pm - - - - - N 28 39 15 21 - - -
22/11:00pm - - - - - N 22 32 12 17 - - -
22/10:30pm - - - - - N 28 39 15 21 - - -
22/10:00pm - - - - - N 24 37 13 20 - - -
22/09:30pm - - - - - N 26 33 14 18 - - -
22/09:00pm - - - - - NNW 26 33 14 18 - - -
22/08:30pm - - - - - NNW 28 39 15 21 - - -
22/08:00pm - - - - - NNW 28 35 15 19 - - -
22/07:30pm - - - - - NNW 26 35 14 19 - - -
22/07:00pm - - - - - NNW 24 33 13 18 - - -
22/06:30pm - - - - - NNW 24 35 13 19 - - -
22/06:00pm - - - - - NNW 24 33 13 18 - - -
22/05:30pm - - - - - N 15 22 8 12 - - -
22/05:00pm - - - - - NW 15 22 8 12 - - -
22/04:30pm - - - - - NW 22 28 12 15 - - -
22/04:00pm - - - - - WNW 22 30 12 16 - - -
22/03:30pm - - - - - W 32 43 17 23 - - -
22/03:00pm - - - - - WNW 24 33 13 18 - - -
22/02:42pm - - - - - WNW 35 59 19 32 - - -
22/02:30pm - - - - - WNW 37 46 20 25 - - -
22/02:00pm - - - - - WNW 39 50 21 27 - - -
22/01:30pm - - - - - WNW 41 56 22 30 - - -
22/01:20pm - - - - - WNW 35 56 19 30 - - -
22/01:00pm - - - - - WNW 30 41 16 22 - - -
22/12:30pm - - - - - WNW 37 52 20 28 - - -
22/12:00pm - - - - - WNW 35 44 19 24 - - -
22/11:30am - - - - - WNW 33 44 18 24 - - -
22/11:00am - - - - - WNW 33 44 18 24 - - -
22/10:30am - - - - - WNW 35 46 19 25 - - -
22/10:00am - - - - - NW 32 39 17 21 - - -
22/09:30am - - - - - NW 24 35 13 19 - - -
22/09:00am - - - - - NNW 17 20 9 11 - - -
22/08:30am - - - - - NNW 17 20 9 11 - - -
22/08:00am - - - - - NW 20 28 11 15 - - -

Other Formats:

Comma delimited format used in spreadsheet applications
http://www.bom.gov.au/fwo/IDV60801/IDV60801.95864.axf

JavaScript Object Notation format (JSON) in row-major order
http://www.bom.gov.au/fwo/IDV60801/IDV60801.95864.json